Terminal Aerodrome Forecast
Issued by NWS Wilmington, OH

Home | Current Version | Previous Version | Text Only | Print | Product List | Glossary On
Versions: 1 2 3 4 5 6 7 8 9 10 11 12 13 14 15 16 17 18 19 20 21 22 23 24 25 26
000
FTUS41 KILN 171400 AAA
TAFCVG
TAF AMD
KCVG 171459Z 1715/1818 22012G18KT P6SM SCT250
     FM172200 21008KT P6SM SCT250
     FM180000 17005KT P6SM BKN200
     FM180800 22007KT P6SM BKN050=

USA.gov is the U.S. government's official web portal to all federal, state and local government web resources and services.